createdAt,value
2022-12-01T00:02:26.480Z,38.60
2022-12-01T00:04:53.873Z,41.75
2022-12-01T00:07:21.199Z,40.00
2022-12-01T00:10:07.089Z,44.85
2022-12-01T00:12:34.354Z,42.17
2022-12-01T00:15:01.649Z,41.38
2022-12-01T00:17:30.235Z,42.30
2022-12-01T00:19:57.789Z,40.35
2022-12-01T00:22:25.095Z,37.38
2022-12-01T00:24:52.430Z,39.33
2022-12-01T00:27:19.802Z,37.60
2022-12-01T00:29:47.400Z,40.85
2022-12-01T00:32:15.276Z,42.83
2022-12-01T00:34:42.613Z,43.28
2022-12-01T00:37:10.302Z,42.03
2022-12-01T00:39:37.569Z,37.58
2022-12-01T00:42:08.686Z,43.35
2022-12-01T00:44:40.251Z,40.13
2022-12-01T00:47:07.560Z,38.70
2022-12-01T00:49:34.914Z,39.60
2022-12-01T00:52:02.254Z,43.55
2022-12-01T00:54:32.144Z,39.65
2022-12-01T00:57:00.830Z,38.67
2022-12-01T00:59:28.085Z,40.28
2022-12-01T01:01:55.473Z,40.75
2022-12-01T01:04:23.124Z,37.70
2022-12-01T01:06:50.446Z,41.22
2022-12-01T01:09:17.812Z,40.58
2022-12-01T01:11:45.087Z,41.72
2022-12-01T01:14:12.415Z,39.20
2022-12-01T01:16:39.815Z,40.33
2022-12-01T01:19:07.527Z,41.42
2022-12-01T01:21:34.846Z,39.45
2022-12-01T01:24:02.341Z,42.15
2022-12-01T01:26:30.990Z,37.88
2022-12-01T01:28:59.475Z,37.53
2022-12-01T01:31:28.032Z,36.05
2022-12-01T01:33:58.825Z,40.47
2022-12-01T01:36:26.298Z,38.78
2022-12-01T01:38:55.118Z,36.88
2022-12-01T01:41:22.991Z,40.65
2022-12-01T01:43:51.903Z,36.97
2022-12-01T01:46:37.417Z,42.53
2022-12-01T01:49:09.630Z,39.50
2022-12-01T01:51:42.675Z,36.10
2022-12-01T01:54:20.114Z,37.45
2022-12-01T01:56:48.846Z,38.70
2022-12-01T01:59:19.784Z,39.17
2022-12-01T02:01:49.469Z,38.08
2022-12-01T02:04:16.873Z,35.65
2022-12-01T02:06:44.138Z,37.63
2022-12-01T02:09:12.884Z,39.60
2022-12-01T02:11:49.590Z,38.08
2022-12-01T02:14:40.517Z,40.70
2022-12-01T02:17:25.904Z,36.05
2022-12-01T02:19:56.068Z,36.67
2022-12-01T02:22:23.511Z,36.38
2022-12-01T02:25:02.943Z,36.85
2022-12-01T02:27:39.226Z,39.92
2022-12-01T02:30:08.008Z,38.83
2022-12-01T02:32:38.327Z,36.92
2022-12-01T02:35:24.464Z,41.42
2022-12-01T02:37:54.815Z,38.55
2022-12-01T02:40:27.428Z,41.05
2022-12-01T02:43:02.935Z,39.15
2022-12-01T02:45:37.300Z,40.80
2022-12-01T02:48:06.332Z,35.58
2022-12-01T02:50:35.141Z,40.42
2022-12-01T02:53:03.841Z,41.05
2022-12-01T02:55:31.175Z,40.63
2022-12-01T02:57:58.509Z,38.90
2022-12-01T03:00:26.267Z,37.85
2022-12-01T03:03:06.531Z,38.45
2022-12-01T03:05:33.837Z,38.63
2022-12-01T03:08:13.877Z,39.20
2022-12-01T03:10:55.297Z,42.22
2022-12-01T03:13:31.909Z,37.95
2022-12-01T03:16:02.808Z,39.13
2022-12-01T03:18:34.234Z,38.17
2022-12-01T03:21:10.484Z,42.53
2022-12-01T03:23:43.148Z,44.38
2022-12-01T03:26:11.883Z,45.05
2022-12-01T03:28:42.202Z,40.42
2022-12-01T03:31:11.949Z,44.78
2022-12-01T03:33:42.514Z,42.30
2022-12-01T03:36:15.122Z,43.92
2022-12-01T03:38:44.701Z,40.60
2022-12-01T03:41:16.044Z,46.85
2022-12-01T03:43:46.108Z,45.28
2022-12-01T03:46:19.955Z,42.75
2022-12-01T03:48:47.459Z,40.35
2022-12-01T03:51:33.633Z,41.20
2022-12-01T03:54:08.675Z,45.33
2022-12-01T03:56:44.208Z,45.50
2022-12-01T03:59:12.126Z,49.65
2022-12-01T04:01:39.702Z,45.30
2022-12-01T04:04:08.121Z,44.13
2022-12-01T04:06:35.850Z,48.40
2022-12-01T04:09:03.195Z,48.25
2022-12-01T04:11:49.807Z,47.55
2022-12-01T04:14:17.154Z,46.80
2022-12-01T04:16:44.416Z,46.28
2022-12-01T04:19:11.927Z,41.90
2022-12-01T04:21:39.157Z,46.67
2022-12-01T04:24:06.761Z,46.85
2022-12-01T04:26:35.380Z,43.42
2022-12-01T04:29:07.994Z,47.88
2022-12-01T04:31:35.417Z,44.40
2022-12-01T04:34:02.823Z,48.65
2022-12-01T04:36:32.099Z,51.08
2022-12-01T04:38:59.407Z,47.83
2022-12-01T04:41:26.675Z,47.05
2022-12-01T04:43:54.751Z,45.40
2022-12-01T04:46:22.414Z,44.90
2022-12-01T04:48:50.050Z,44.95
2022-12-01T04:51:17.372Z,49.88
2022-12-01T04:53:44.700Z,45.33
2022-12-01T04:56:12.092Z,43.80
2022-12-01T04:58:39.716Z,48.05
2022-12-01T05:01:08.885Z,45.40
2022-12-01T05:03:40.085Z,46.85
2022-12-01T05:06:11.581Z,52.35
2022-12-01T05:08:38.851Z,47.78
2022-12-01T05:11:07.811Z,47.47
2022-12-01T05:13:37.170Z,45.92
2022-12-01T05:16:05.311Z,44.72
2022-12-01T05:18:32.879Z,51.15
2022-12-01T05:21:00.398Z,45.83
2022-12-01T05:23:29.251Z,46.25
2022-12-01T05:25:56.898Z,52.35
2022-12-01T05:28:24.926Z,45.30
2022-12-01T05:30:52.433Z,50.90
2022-12-01T05:33:19.791Z,47.40
2022-12-01T05:35:48.676Z,51.35
2022-12-01T05:38:16.359Z,48.58
2022-12-01T05:40:43.874Z,46.25
2022-12-01T05:43:11.121Z,46.20
2022-12-01T05:45:38.589Z,47.80
2022-12-01T05:48:06.033Z,51.47
2022-12-01T05:50:33.311Z,43.40
2022-12-01T05:53:02.402Z,49.83
2022-12-01T05:55:29.744Z,46.63
2022-12-01T05:57:57.153Z,50.38
2022-12-01T06:00:24.511Z,50.50
2022-12-01T06:02:51.819Z,55.00
2022-12-01T06:05:19.063Z,46.53
2022-12-01T06:07:46.453Z,51.63
2022-12-01T06:10:13.822Z,46.10
2022-12-01T06:12:41.170Z,48.08
2022-12-01T06:15:08.780Z,51.17
2022-12-01T06:17:40.124Z,47.28
2022-12-01T06:20:08.308Z,51.28
2022-12-01T06:22:35.595Z,53.78
2022-12-01T06:25:03.267Z,48.03
2022-12-01T06:27:30.572Z,52.30
2022-12-01T06:29:57.964Z,45.38
2022-12-01T06:32:25.308Z,46.38
2022-12-01T06:34:52.625Z,47.28
2022-12-01T06:37:19.963Z,46.70
2022-12-01T06:39:47.581Z,53.20
2022-12-01T06:42:15.630Z,59.60
2022-12-01T06:44:42.942Z,58.22
2022-12-01T06:47:10.256Z,54.00
2022-12-01T06:49:38.305Z,51.33
2022-12-01T06:52:06.160Z,48.70
2022-12-01T06:54:33.580Z,51.70
2022-12-01T06:57:01.059Z,64.00
2022-12-01T06:59:28.688Z,55.42
2022-12-01T07:01:57.904Z,61.97
2022-12-01T07:04:25.280Z,54.17
2022-12-01T07:06:52.601Z,55.30
2022-12-01T07:09:19.890Z,55.78
2022-12-01T07:11:47.153Z,53.85
2022-12-01T07:14:20.630Z,53.42
2022-12-01T07:16:48.067Z,54.30
2022-12-01T07:19:15.379Z,54.03
2022-12-01T07:21:42.787Z,53.80
2022-12-01T07:24:10.197Z,57.50
2022-12-01T07:26:37.533Z,53.22
2022-12-01T07:29:04.982Z,56.55
2022-12-01T07:31:32.417Z,50.88
2022-12-01T07:33:59.715Z,58.97
2022-12-01T07:36:27.055Z,56.10
2022-12-01T07:38:54.315Z,60.42
2022-12-01T07:41:21.585Z,56.55
2022-12-01T07:43:50.933Z,53.25
2022-12-01T07:46:23.062Z,58.15
2022-12-01T07:48:51.659Z,56.63
2022-12-01T07:51:19.083Z,51.67
2022-12-01T07:53:47.331Z,54.83
2022-12-01T07:56:14.725Z,56.13
2022-12-01T07:58:42.386Z,56.20
2022-12-01T08:01:10.552Z,56.72
2022-12-01T08:03:38.411Z,51.28
2022-12-01T08:06:06.412Z,54.40
2022-12-01T08:08:35.997Z,51.70
2022-12-01T08:11:04.728Z,50.28
2022-12-01T08:13:32.284Z,64.60
2022-12-01T08:15:59.535Z,51.83
2022-12-01T08:18:26.871Z,55.72
2022-12-01T08:20:58.362Z,53.08
2022-12-01T08:23:25.822Z,46.33
2022-12-01T08:25:53.117Z,61.30
2022-12-01T08:28:20.827Z,105.60
2022-12-01T08:30:48.310Z,79.47
2022-12-01T08:33:15.649Z,59.63
2022-12-01T08:35:42.989Z,48.78
2022-12-01T08:38:10.751Z,49.05
2022-12-01T08:40:38.099Z,51.60
2022-12-01T08:43:06.038Z,54.40
2022-12-01T08:45:33.471Z,49.20
2022-12-01T08:48:00.755Z,51.95
2022-12-01T08:50:28.478Z,49.47
2022-12-01T08:52:55.849Z,50.00
2022-12-01T08:55:23.264Z,52.17
2022-12-01T08:57:50.515Z,52.50
2022-12-01T09:00:17.913Z,54.67
2022-12-01T09:02:45.355Z,50.63
2022-12-01T09:05:12.857Z,62.20
2022-12-01T09:07:41.168Z,103.68
2022-12-01T09:10:08.703Z,97.28
2022-12-01T09:12:36.041Z,58.38
2022-12-01T09:15:03.558Z,56.40
2022-12-01T09:17:30.889Z,51.90
2022-12-01T09:19:58.202Z,52.92
2022-12-01T09:22:25.514Z,50.30
2022-12-01T09:24:52.840Z,47.28
2022-12-01T09:27:20.161Z,44.87
2022-12-01T09:29:47.610Z,45.72
2022-12-01T09:32:15.201Z,47.28
2022-12-01T09:34:42.566Z,48.13
2022-12-01T09:37:10.552Z,39.80
2022-12-01T09:39:37.868Z,42.63
2022-12-01T09:42:15.777Z,44.00
2022-12-01T09:44:53.259Z,42.00
2022-12-01T09:47:29.716Z,40.30
2022-12-01T09:50:02.697Z,42.63
2022-12-01T09:52:33.401Z,43.03
2022-12-01T09:55:01.842Z,45.72
2022-12-01T09:57:36.700Z,41.30
2022-12-01T10:00:11.901Z,41.28
2022-12-01T10:02:51.308Z,40.97
2022-12-01T10:05:23.060Z,37.03
2022-12-01T10:07:59.540Z,39.67
2022-12-01T10:10:31.063Z,43.45
2022-12-01T10:12:58.726Z,40.67
2022-12-01T10:15:38.077Z,38.40
2022-12-01T10:18:25.968Z,40.37
2022-12-01T10:21:12.055Z,41.25
2022-12-01T10:23:45.118Z,43.28
2022-12-01T10:26:26.224Z,39.42
2022-12-01T10:28:58.208Z,37.83
2022-12-01T10:31:29.902Z,37.83
2022-12-01T10:33:57.186Z,35.53
2022-12-01T10:36:25.478Z,36.55
2022-12-01T10:38:52.962Z,38.60
2022-12-01T10:41:21.161Z,43.30
2022-12-01T10:43:50.079Z,38.00
2022-12-01T10:46:24.803Z,35.83
2022-12-01T10:48:59.255Z,34.50
2022-12-01T10:51:27.449Z,36.53
2022-12-01T10:54:07.333Z,35.80
2022-12-01T10:56:34.705Z,40.00
2022-12-01T10:59:14.979Z,45.55
2022-12-01T11:01:47.725Z,39.22
2022-12-01T11:04:27.382Z,36.40
2022-12-01T11:06:54.882Z,38.13
2022-12-01T11:09:26.590Z,36.80
2022-12-01T11:11:58.907Z,39.83
2022-12-01T11:14:30.596Z,35.50
2022-12-01T11:16:57.957Z,47.65
2022-12-01T11:19:33.013Z,38.47
2022-12-01T11:22:19.008Z,35.40
2022-12-01T11:24:56.859Z,32.85
2022-12-01T11:27:26.353Z,33.85
2022-12-01T11:29:56.832Z,33.75
2022-12-01T11:32:28.667Z,36.55
2022-12-01T11:35:00.304Z,35.20
2022-12-01T11:37:36.911Z,37.92
2022-12-01T11:40:22.022Z,34.17
2022-12-01T11:42:51.146Z,34.40
2022-12-01T11:45:21.407Z,33.30
2022-12-01T11:48:07.503Z,34.07
2022-12-01T11:50:36.286Z,32.25
2022-12-01T11:53:04.512Z,35.10
2022-12-01T11:55:32.363Z,37.85
2022-12-01T11:58:03.700Z,37.70
2022-12-01T12:00:40.245Z,40.87
2022-12-01T12:03:16.565Z,34.03
2022-12-01T12:05:50.178Z,35.45
2022-12-01T12:08:20.419Z,38.05
2022-12-01T12:11:08.684Z,35.03
2022-12-01T12:13:40.741Z,28.83
2022-12-01T12:16:33.536Z,31.92
2022-12-01T12:19:13.741Z,33.75
2022-12-01T12:21:59.835Z,28.48
2022-12-01T12:24:29.946Z,26.70
2022-12-01T12:27:16.101Z,29.33
2022-12-01T12:29:52.747Z,30.08
2022-12-01T12:32:32.375Z,30.55
2022-12-01T12:35:02.419Z,28.58
2022-12-01T12:37:42.346Z,31.98
2022-12-01T12:40:09.591Z,37.70
2022-12-01T12:43:03.949Z,34.85
2022-12-01T12:45:34.328Z,34.22
2022-12-01T12:48:04.607Z,31.08
2022-12-01T12:50:40.003Z,30.65
2022-12-01T12:53:13.169Z,35.90
2022-12-01T12:55:48.898Z,26.45
2022-12-01T12:58:35.050Z,26.30
2022-12-01T13:01:04.902Z,30.80
2022-12-01T13:03:52.545Z,36.20
2022-12-01T13:06:38.254Z,29.40
2022-12-01T13:09:14.627Z,29.13
2022-12-01T13:11:58.222Z,35.45
2022-12-01T13:14:28.720Z,31.77
2022-12-01T13:16:59.558Z,28.65
2022-12-01T13:19:31.806Z,28.03
2022-12-01T13:22:01.289Z,29.30
2022-12-01T13:24:30.134Z,31.50
2022-12-01T13:27:01.207Z,28.83
2022-12-01T13:29:34.283Z,28.63
2022-12-01T13:32:02.625Z,28.03
2022-12-01T13:34:41.919Z,28.15
2022-12-01T13:37:12.386Z,35.67
2022-12-01T13:39:40.585Z,25.77
2022-12-01T13:42:22.094Z,31.55
2022-12-01T13:45:15.483Z,34.53
2022-12-01T13:47:48.912Z,27.58
2022-12-01T13:50:35.113Z,26.10
2022-12-01T13:53:25.798Z,27.73
2022-12-01T13:56:22.750Z,27.75
2022-12-01T13:58:51.806Z,29.27
2022-12-01T14:01:22.812Z,25.08
2022-12-01T14:03:57.959Z,26.33
2022-12-01T14:06:39.021Z,25.30
2022-12-01T14:09:08.331Z,23.73
2022-12-01T14:11:35.910Z,24.50
2022-12-01T14:14:22.736Z,26.33
2022-12-01T14:16:54.547Z,27.33
2022-12-01T14:19:40.623Z,28.20
2022-12-01T14:22:08.558Z,42.13
2022-12-01T14:24:37.873Z,29.83
2022-12-01T14:27:06.268Z,26.92
2022-12-01T14:29:43.095Z,26.27
2022-12-01T14:32:10.433Z,27.58
2022-12-01T14:34:39.033Z,28.63
2022-12-01T14:37:18.447Z,26.23
2022-12-01T14:39:48.747Z,26.02
2022-12-01T14:42:35.956Z,31.20
2022-12-01T14:45:04.578Z,32.08
2022-12-01T14:47:40.740Z,37.05
2022-12-01T14:50:16.176Z,35.50
2022-12-01T14:53:02.483Z,30.00
2022-12-01T14:55:33.837Z,33.45
2022-12-01T14:58:05.069Z,30.48
2022-12-01T15:00:34.509Z,32.67
2022-12-01T15:03:07.417Z,28.03
2022-12-01T15:05:39.335Z,31.20
2022-12-01T15:08:40.989Z,42.65
2022-12-01T15:11:11.085Z,41.97
2022-12-01T15:13:47.908Z,35.58
2022-12-01T15:16:17.146Z,46.93
2022-12-01T15:18:44.894Z,54.95
2022-12-01T15:21:23.764Z,52.88
2022-12-01T15:23:54.220Z,67.43
2022-12-01T15:26:22.038Z,46.70
2022-12-01T15:28:49.425Z,44.13
2022-12-01T15:31:16.837Z,38.65
2022-12-01T15:33:49.374Z,35.47
2022-12-01T15:36:17.040Z,36.80
2022-12-01T15:38:46.615Z,33.45
2022-12-01T15:41:29.193Z,32.97
2022-12-01T15:43:57.997Z,34.08
2022-12-01T15:46:32.789Z,30.88
2022-12-01T15:49:06.784Z,32.70
2022-12-01T15:51:34.377Z,37.20
2022-12-01T15:54:02.403Z,35.13
2022-12-01T15:56:31.736Z,35.10
2022-12-01T15:59:10.219Z,33.45
2022-12-01T16:01:37.939Z,28.90
2022-12-01T16:04:20.306Z,31.95
2022-12-01T16:06:56.618Z,34.97
2022-12-01T16:09:30.028Z,28.95
2022-12-01T16:12:08.376Z,29.45
2022-12-01T16:14:36.635Z,35.63
2022-12-01T16:17:05.568Z,37.45
2022-12-01T16:19:33.971Z,34.80
2022-12-01T16:22:14.094Z,33.13
2022-12-01T16:24:47.494Z,27.58
2022-12-01T16:27:20.119Z,30.48
2022-12-01T16:29:50.612Z,32.83
2022-12-01T16:32:24.183Z,32.67
2022-12-01T16:34:52.837Z,34.33
2022-12-01T16:37:21.770Z,42.83
2022-12-01T16:39:49.369Z,67.35
2022-12-01T16:42:18.252Z,39.95
2022-12-01T16:44:46.627Z,32.13
2022-12-01T16:47:15.147Z,32.33
2022-12-01T16:49:42.575Z,28.35
2022-12-01T16:54:58.416Z,33.58
2022-12-01T16:57:25.709Z,28.97
2022-12-01T16:59:53.023Z,32.92
2022-12-01T17:02:20.364Z,27.33
2022-12-01T17:04:48.065Z,28.02
2022-12-01T17:07:15.540Z,26.13
2022-12-01T17:09:43.478Z,28.07
2022-12-01T17:12:10.812Z,24.50
2022-12-01T17:14:38.195Z,28.05
2022-12-01T17:17:05.529Z,35.38
2022-12-01T17:19:32.851Z,33.47
2022-12-01T17:22:00.222Z,29.60
2022-12-01T17:24:27.534Z,30.20
2022-12-01T17:26:54.827Z,28.48
2022-12-01T17:29:22.154Z,40.08
2022-12-01T17:31:49.427Z,30.23
2022-12-01T17:34:16.707Z,27.43
2022-12-01T17:36:44.023Z,29.10
2022-12-01T17:39:11.322Z,30.92
2022-12-01T17:41:38.674Z,30.60
2022-12-01T17:44:06.476Z,33.35
2022-12-01T17:46:34.204Z,32.70
2022-12-01T17:49:01.715Z,28.90
2022-12-01T17:51:29.030Z,33.20
2022-12-01T17:53:56.373Z,30.77
2022-12-01T17:56:23.629Z,29.92
2022-12-01T17:58:51.456Z,36.17
2022-12-01T18:01:19.739Z,33.45
2022-12-01T18:03:47.915Z,87.43
2022-12-01T18:06:15.901Z,50.38
2022-12-01T18:08:43.526Z,41.58
2022-12-01T18:11:12.606Z,36.10
2022-12-01T18:13:40.961Z,35.35
2022-12-01T18:16:13.214Z,33.13
2022-12-01T18:18:40.919Z,34.08
2022-12-01T18:21:09.251Z,33.72
2022-12-01T18:23:36.854Z,35.20
2022-12-01T18:26:08.582Z,29.77
2022-12-01T18:28:38.170Z,30.40
2022-12-01T18:31:05.765Z,37.92
2022-12-01T18:33:34.094Z,41.08
2022-12-01T18:36:01.837Z,35.17
2022-12-01T18:38:29.405Z,35.83
2022-12-01T18:40:59.589Z,34.00
2022-12-01T18:43:28.310Z,33.25
2022-12-01T18:45:55.997Z,33.72
2022-12-01T18:48:23.318Z,34.50
2022-12-01T18:51:00.070Z,35.13
2022-12-01T18:53:27.481Z,41.35
2022-12-01T18:55:54.754Z,35.15
2022-12-01T18:58:22.057Z,30.63
2022-12-01T19:00:49.477Z,33.17
2022-12-01T19:03:17.014Z,36.75
2022-12-01T19:05:44.324Z,33.75
2022-12-01T19:08:11.860Z,27.63
2022-12-01T19:10:39.223Z,29.65
2022-12-01T19:13:06.601Z,33.33
2022-12-01T19:15:36.586Z,34.33
2022-12-01T19:18:03.977Z,33.92
2022-12-01T19:20:31.303Z,31.63
2022-12-01T19:22:58.649Z,34.78
2022-12-01T19:25:26.020Z,37.43
2022-12-01T19:27:53.362Z,44.72
2022-12-01T19:30:20.797Z,84.00
2022-12-01T19:32:48.277Z,57.78
2022-12-01T19:35:15.657Z,38.47
2022-12-01T19:37:43.050Z,33.57
2022-12-01T19:40:10.632Z,33.75
2022-12-01T19:42:38.053Z,31.52
2022-12-01T19:45:05.711Z,35.45
2022-12-01T19:47:33.487Z,34.85
2022-12-01T19:50:01.390Z,32.13
2022-12-01T19:52:29.260Z,33.38
2022-12-01T19:54:56.596Z,31.70
2022-12-01T19:57:24.300Z,33.38
2022-12-01T19:59:51.737Z,33.30
2022-12-01T20:02:23.865Z,33.37
2022-12-01T20:04:53.433Z,42.30
2022-12-01T20:07:20.911Z,37.25
2022-12-01T20:09:50.033Z,32.50
2022-12-01T20:12:17.805Z,34.08
2022-12-01T20:14:45.135Z,32.30
2022-12-01T20:17:15.841Z,40.03
2022-12-01T20:19:43.598Z,35.05
2022-12-01T20:22:11.128Z,36.25
2022-12-01T20:24:41.176Z,34.55
2022-12-01T20:27:09.627Z,40.37
2022-12-01T20:29:37.206Z,36.15
2022-12-01T20:32:04.762Z,36.60
2022-12-01T20:34:36.578Z,38.33
2022-12-01T20:37:04.699Z,40.72
2022-12-01T20:39:34.670Z,40.10
2022-12-01T20:42:01.995Z,40.47
2022-12-01T20:44:29.507Z,38.30
2022-12-01T20:46:57.743Z,39.03
2022-12-01T20:49:25.006Z,41.05
2022-12-01T20:51:52.380Z,38.33
2022-12-01T20:54:27.817Z,42.97
2022-12-01T20:56:55.440Z,40.75
2022-12-01T20:59:22.833Z,37.45
2022-12-01T21:01:50.150Z,36.47
2022-12-01T21:04:18.061Z,39.83
2022-12-01T21:06:45.611Z,40.60
2022-12-01T21:09:14.645Z,41.22
2022-12-01T21:12:10.333Z,38.08
2022-12-01T21:14:52.915Z,37.22
2022-12-01T21:17:20.337Z,36.83
2022-12-01T21:20:01.654Z,39.67
2022-12-01T21:22:29.030Z,36.30
2022-12-01T21:25:03.043Z,38.10
2022-12-01T21:27:30.583Z,39.67
2022-12-01T21:29:57.881Z,37.85
2022-12-01T21:32:30.493Z,40.72
2022-12-01T21:35:06.003Z,37.95
2022-12-01T21:37:33.327Z,36.75
2022-12-01T21:40:01.233Z,40.65
2022-12-01T21:42:31.375Z,40.93
2022-12-01T21:44:58.770Z,42.50
2022-12-01T21:47:30.469Z,38.22
2022-12-01T21:49:58.542Z,38.28
2022-12-01T21:52:30.311Z,42.53
2022-12-01T21:55:23.485Z,39.47
2022-12-01T21:57:54.137Z,38.17
2022-12-01T22:00:27.637Z,39.28
2022-12-01T22:03:01.047Z,38.63
2022-12-01T22:05:31.121Z,37.25
2022-12-01T22:08:08.253Z,37.20
2022-12-01T22:10:53.241Z,42.60
2022-12-01T22:13:22.833Z,40.55
2022-12-01T22:15:50.181Z,39.35
2022-12-01T22:18:25.453Z,41.67
2022-12-01T22:20:52.873Z,40.80
2022-12-01T22:23:20.801Z,38.95
2022-12-01T22:25:48.531Z,40.15
2022-12-01T22:28:18.811Z,39.15
2022-12-01T22:30:46.443Z,45.58
2022-12-01T22:33:34.049Z,40.35
2022-12-01T22:36:01.310Z,40.47
2022-12-01T22:38:33.211Z,39.42
2022-12-01T22:41:05.046Z,38.65
2022-12-01T22:43:32.298Z,42.92
2022-12-01T22:45:59.612Z,42.67
2022-12-01T22:48:33.141Z,40.42
2022-12-01T22:51:09.903Z,39.60
2022-12-01T22:53:37.453Z,39.03
2022-12-01T22:56:16.919Z,40.58
2022-12-01T22:58:44.208Z,39.08
2022-12-01T23:01:17.644Z,39.33
2022-12-01T23:03:44.925Z,37.47
2022-12-01T23:06:31.064Z,39.58
2022-12-01T23:08:58.396Z,40.55
2022-12-01T23:11:25.630Z,44.90
2022-12-01T23:13:52.958Z,37.25
2022-12-01T23:16:20.309Z,37.53
2022-12-01T23:18:47.641Z,36.92
2022-12-01T23:21:16.390Z,42.35
2022-12-01T23:23:43.667Z,41.53
2022-12-01T23:26:10.996Z,41.55
2022-12-01T23:28:41.791Z,42.95
2022-12-01T23:31:09.812Z,42.75
2022-12-01T23:33:37.524Z,43.63
2022-12-01T23:36:06.247Z,43.03
2022-12-01T23:38:33.519Z,48.97
2022-12-01T23:41:02.003Z,40.05
2022-12-01T23:43:40.295Z,44.60
2022-12-01T23:46:11.086Z,43.10
2022-12-01T23:48:40.808Z,49.07
2022-12-01T23:51:28.902Z,45.83
2022-12-01T23:53:56.988Z,47.63
2022-12-01T23:56:25.553Z,42.70
2022-12-01T23:58:54.320Z,48.28
